Аэропорт: Братск. Братск

ICAO: UIBB

METAR:
2019-09-21 16:00:00
UIBB 211600Z 26003MPS 9999 NSC 09/05 Q1020 R30/60D NOSIG RMK QFE722/0963
METAR:
2019-09-21 14:00:00
TAF UIBB 211400Z 2115/2215 24003MPS 9999 -SHRA FEW006 BKN016CB